Time;durP1;ratioP1;P1;durP2;ratioP2;P2;SDS_P1;SDS_P2;PMS_P1;PMS_P2;Temp;Humidity;BMP_temperature;BMP_pressure;BME280_temperature;BME280_humidity;BME280_pressure;Samples;Min_cycle;Max_cycle;Signal;HPM_P1;HPM_P2
2024/02/25 00:02:14;;;;;;;5.90;5.40;;;5.30;99.90;;;;;;4998856;28;20194;-61
2024/02/25 00:04:42;;;;;;;5.50;5.00;;;5.20;99.90;;;;;;4995734;28;20214;-61
2024/02/25 00:07:10;;;;;;;5.83;5.40;;;5.20;99.90;;;;;;4996881;28;20226;-61
2024/02/25 00:09:38;;;;;;;6.50;5.83;;;5.20;99.90;;;;;;5000083;28;20221;-61
2024/02/25 00:12:07;;;;;;;6.03;5.57;;;5.30;99.90;;;;;;5000354;28;20226;-60
2024/02/25 00:14:37;;;;;;;6.57;6.07;;;5.30;99.90;;;;;;4996646;28;20195;-61
2024/02/25 00:17:05;;;;;;;6.50;5.80;;;5.30;99.90;;;;;;4995286;28;20277;-60
2024/02/25 00:19:33;;;;;;;7.87;5.87;;;5.30;99.90;;;;;;4995388;28;20235;-60
2024/02/25 00:22:02;;;;;;;6.20;5.80;;;5.30;99.90;;;;;;4997031;28;20248;-61
2024/02/25 00:24:30;;;;;;;6.67;6.03;;;5.30;99.90;;;;;;5001118;28;20312;-61
2024/02/25 00:26:58;;;;;;;8.40;6.37;;;5.30;99.90;;;;;;4991545;28;20230;-60
2024/02/25 00:29:27;;;;;;;6.60;6.00;;;5.40;99.90;;;;;;4997295;28;20198;-61
2024/02/25 00:31:56;;;;;;;6.77;6.17;;;5.30;99.90;;;;;;5016594;28;20192;-60
2024/02/25 00:34:25;;;;;;;7.17;6.57;;;5.40;99.90;;;;;;5016152;28;20232;-61
2024/02/25 00:36:53;;;;;;;8.80;6.50;;;5.40;99.90;;;;;;5018669;28;20237;-60
2024/02/25 00:39:21;;;;;;;6.87;6.03;;;5.40;99.90;;;;;;5009454;28;20218;-60
2024/02/25 00:41:52;;;;;;;8.97;6.47;;;5.30;99.90;;;;;;5012261;28;20225;-61
2024/02/25 00:44:20;;;;;;;7.10;6.50;;;5.30;99.90;;;;;;5018373;28;20194;-61
2024/02/25 00:46:49;;;;;;;7.53;6.73;;;5.30;99.90;;;;;;5020233;28;20804;-60
2024/02/25 00:49:18;;;;;;;7.23;6.57;;;5.40;99.90;;;;;;5025641;28;20222;-61
2024/02/25 00:51:47;;;;;;;7.10;6.50;;;5.40;99.90;;;;;;5018408;28;20218;-61
2024/02/25 00:54:15;;;;;;;7.00;6.33;;;5.40;99.90;;;;;;5020319;28;20695;-61
2024/02/25 00:56:45;;;;;;;8.30;6.90;;;5.40;99.90;;;;;;5012770;28;20229;-61
2024/02/25 00:59:13;;;;;;;7.37;6.47;;;5.40;99.90;;;;;;5017405;28;20190;-61
2024/02/25 01:01:42;;;;;;;7.37;6.37;;;5.40;99.90;;;;;;4999745;28;20222;-61
2024/02/25 01:04:10;;;;;;;7.57;6.87;;;5.50;99.90;;;;;;4998244;28;20221;-60
2024/02/25 01:06:41;;;;;;;6.97;6.37;;;5.50;99.90;;;;;;5006256;28;20312;-60
2024/02/25 01:09:10;;;;;;;11.03;6.30;;;5.50;99.90;;;;;;5013185;28;20218;-60
2024/02/25 01:11:39;;;;;;;7.13;6.43;;;5.50;99.90;;;;;;5018348;28;20235;-61
2024/02/25 01:14:07;;;;;;;7.53;6.60;;;5.50;99.90;;;;;;5016956;28;20198;-61
2024/02/25 01:16:35;;;;;;;8.27;6.50;;;5.60;99.90;;;;;;5017370;28;20221;-60
2024/02/25 01:19:03;;;;;;;6.87;6.30;;;5.60;99.90;;;;;;5007855;28;20221;-60
2024/02/25 01:21:32;;;;;;;7.50;6.70;;;5.60;99.90;;;;;;5017917;28;20279;-61
2024/02/25 01:24:02;;;;;;;8.53;6.60;;;5.60;99.90;;;;;;5018276;28;20224;-60
2024/02/25 01:26:31;;;;;;;7.43;6.40;;;5.60;99.90;;;;;;5018588;28;20285;-60
2024/02/25 01:29:00;;;;;;;10.20;8.17;;;5.50;99.90;;;;;;5015016;28;20198;-61
2024/02/25 01:31:28;;;;;;;7.70;6.90;;;5.60;99.90;;;;;;5015777;28;20696;-61
2024/02/25 01:33:56;;;;;;;7.67;6.43;;;5.60;99.90;;;;;;5019225;28;20237;-60
2024/02/25 01:36:25;;;;;;;7.67;6.87;;;5.60;99.90;;;;;;5019470;28;20575;-60
2024/02/25 01:38:53;;;;;;;7.87;7.10;;;5.60;99.90;;;;;;5015282;28;20684;-61
2024/02/25 01:41:23;;;;;;;8.27;7.17;;;5.60;99.90;;;;;;5018630;28;20216;-61
2024/02/25 01:43:51;;;;;;;9.50;7.23;;;5.60;99.90;;;;;;5016335;28;20819;-60
2024/02/25 01:46:19;;;;;;;8.87;7.30;;;5.70;99.90;;;;;;5018419;28;20228;-60
2024/02/25 01:48:50;;;;;;;7.70;6.83;;;5.70;99.90;;;;;;5012331;28;21024;-60
2024/02/25 01:51:20;;;;;;;8.13;6.83;;;5.70;99.90;;;;;;5012638;28;20554;-60
2024/02/25 01:53:50;;;;;;;7.40;6.80;;;5.70;99.90;;;;;;5023815;28;20696;-60
2024/02/25 01:56:18;;;;;;;8.47;7.70;;;5.70;99.90;;;;;;5019967;28;20195;-61
2024/02/25 01:58:52;;;;;;;7.67;6.97;;;5.80;99.90;;;;;;5018275;28;20198;-61
2024/02/25 02:01:21;;;;;;;7.83;7.17;;;5.80;99.90;;;;;;5014466;28;20276;-61
2024/02/25 02:03:50;;;;;;;8.17;7.37;;;5.80;99.90;;;;;;5020149;28;20218;-61
2024/02/25 02:06:18;;;;;;;9.67;7.47;;;5.80;99.90;;;;;;5016950;28;20222;-61
2024/02/25 02:08:47;;;;;;;7.73;7.07;;;5.80;99.90;;;;;;5019280;28;20562;-61
2024/02/25 02:11:16;;;;;;;8.17;7.27;;;5.80;99.90;;;;;;5016591;28;20284;-61
2024/02/25 02:13:44;;;;;;;10.10;7.67;;;5.80;99.90;;;;;;5015946;28;20217;-60
2024/02/25 02:16:15;;;;;;;8.47;7.33;;;5.90;99.90;;;;;;5017329;28;20542;-61
2024/02/25 02:18:44;;;;;;;8.10;7.40;;;5.90;99.90;;;;;;5014761;28;20236;-61
2024/02/25 02:21:18;;;;;;;9.70;7.70;;;5.90;99.90;;;;;;5020169;28;20232;-61
2024/02/25 02:23:46;;;;;;;8.70;7.80;;;5.80;99.90;;;;;;5006893;28;20226;-61
2024/02/25 02:26:14;;;;;;;8.67;7.87;;;5.80;99.90;;;;;;4992860;28;20258;-61
2024/02/25 02:28:43;;;;;;;8.13;7.43;;;5.80;99.90;;;;;;4993022;28;20264;-60
2024/02/25 02:31:11;;;;;;;9.20;7.80;;;5.80;99.90;;;;;;4998491;28;20218;-60
2024/02/25 02:33:40;;;;;;;9.43;7.70;;;5.90;99.90;;;;;;4995247;28;20745;-61
2024/02/25 02:36:10;;;;;;;8.60;7.37;;;5.90;99.90;;;;;;4997528;28;20224;-61
2024/02/25 02:38:39;;;;;;;7.77;6.97;;;6.00;99.90;;;;;;4996075;28;20245;-61
2024/02/25 02:41:08;;;;;;;8.17;7.17;;;6.00;99.90;;;;;;4991711;28;20195;-60
2024/02/25 02:43:36;;;;;;;8.57;7.20;;;6.00;99.90;;;;;;5000648;28;20237;-61
2024/02/25 02:46:11;;;;;;;10.43;7.93;;;6.00;99.90;;;;;;4987231;28;20214;-61
2024/02/25 02:48:39;;;;;;;12.80;9.67;;;6.00;99.90;;;;;;4992317;28;20305;-61
2024/02/25 02:51:09;;;;;;;18.20;10.47;;;6.00;99.90;;;;;;4996178;28;20249;-61
2024/02/25 02:53:39;;;;;;;17.20;10.07;;;6.00;99.90;;;;;;4993316;28;20194;-61
2024/02/25 02:56:07;;;;;;;11.83;8.23;;;6.00;99.90;;;;;;5001378;28;20588;-61
2024/02/25 02:58:37;;;;;;;9.83;8.20;;;6.00;99.90;;;;;;4992486;28;20218;-61
2024/02/25 03:01:05;;;;;;;9.00;7.93;;;6.10;99.90;;;;;;5003456;28;20232;-60
2024/02/25 03:03:33;;;;;;;12.30;8.17;;;6.10;99.90;;;;;;4997812;28;20300;-61
2024/02/25 03:06:02;;;;;;;9.30;8.10;;;6.10;99.90;;;;;;5003349;28;20219;-61
2024/02/25 03:08:30;;;;;;;10.23;7.87;;;6.00;99.90;;;;;;5003013;28;20207;-60
2024/02/25 03:11:00;;;;;;;14.43;7.47;;;6.00;99.90;;;;;;5001083;28;20202;-61
2024/02/25 03:13:29;;;;;;;12.93;7.03;;;6.00;99.90;;;;;;5003495;28;20228;-61
2024/02/25 03:15:57;;;;;;;9.53;7.47;;;6.00;99.90;;;;;;4997834;28;20222;-61
2024/02/25 03:18:25;;;;;;;10.30;6.90;;;6.10;99.90;;;;;;4995010;28;20218;-61
2024/02/25 03:20:54;;;;;;;9.07;7.37;;;6.10;99.90;;;;;;4997440;28;20322;-61
2024/02/25 03:23:22;;;;;;;7.20;6.50;;;6.00;99.90;;;;;;4999280;28;20219;-61
2024/02/25 03:25:51;;;;;;;9.20;6.77;;;6.00;99.90;;;;;;4999638;28;20681;-61
2024/02/25 03:28:21;;;;;;;8.97;6.97;;;6.00;99.90;;;;;;5006563;28;20218;-61
2024/02/25 03:30:49;;;;;;;6.57;6.00;;;6.00;99.90;;;;;;4995274;28;20230;-60
2024/02/25 03:33:17;;;;;;;9.37;6.83;;;5.90;99.90;;;;;;4994526;28;20229;-61
2024/02/25 03:35:46;;;;;;;7.53;6.73;;;5.90;99.90;;;;;;4998439;28;20222;-61
2024/02/25 03:38:14;;;;;;;8.87;6.63;;;5.80;99.90;;;;;;5000025;28;20194;-60
2024/02/25 03:40:45;;;;;;;6.70;6.10;;;5.80;99.90;;;;;;4998337;28;20656;-61
2024/02/25 03:43:14;;;;;;;6.93;6.30;;;5.80;99.90;;;;;;5012618;28;20211;-60
2024/02/25 03:45:44;;;;;;;9.30;6.17;;;5.80;99.90;;;;;;4999199;28;20245;-60
2024/02/25 03:48:13;;;;;;;8.00;6.60;;;5.80;99.90;;;;;;4997170;28;20230;-60
2024/02/25 03:50:41;;;;;;;8.40;6.27;;;5.90;99.90;;;;;;4991071;28;20629;-61
2024/02/25 03:53:10;;;;;;;9.23;6.73;;;5.90;99.90;;;;;;4994521;28;20716;-60
2024/02/25 03:55:38;;;;;;;9.07;5.87;;;5.80;99.90;;;;;;4997330;28;20223;-60
2024/02/25 03:58:06;;;;;;;7.20;5.93;;;5.80;99.90;;;;;;4998187;28;20237;-61
2024/02/25 04:00:34;;;;;;;6.40;5.80;;;5.70;99.90;;;;;;4993954;28;20588;-60
2024/02/25 04:03:04;;;;;;;9.43;6.10;;;5.70;99.90;;;;;;5003214;28;20597;-61
2024/02/25 04:05:33;;;;;;;8.00;5.73;;;5.70;99.90;;;;;;4997968;28;20199;-60
2024/02/25 04:08:01;;;;;;;7.07;5.80;;;5.70;99.90;;;;;;5002937;28;20194;-60
2024/02/25 04:10:30;;;;;;;6.60;6.00;;;5.80;99.90;;;;;;4994560;28;20225;-60
2024/02/25 04:12:58;;;;;;;7.00;6.30;;;5.80;99.90;;;;;;4999032;28;20697;-60
2024/02/25 04:15:27;;;;;;;6.80;5.93;;;5.80;99.90;;;;;;4997867;28;20218;-59
2024/02/25 04:17:55;;;;;;;7.03;6.33;;;5.90;99.90;;;;;;5002016;28;20230;-60
2024/02/25 04:20:25;;;;;;;10.10;5.77;;;5.90;99.90;;;;;;4997165;28;20545;-59
2024/02/25 04:22:53;;;;;;;6.73;5.70;;;5.90;99.90;;;;;;5000320;28;20285;-59
2024/02/25 04:25:21;;;;;;;8.40;6.43;;;5.90;99.90;;;;;;4996066;28;20716;-60
2024/02/25 04:27:50;;;;;;;6.40;5.60;;;5.90;99.90;;;;;;4996136;28;20605;-60
2024/02/25 04:30:18;;;;;;;8.47;5.80;;;6.00;99.90;;;;;;4993937;28;20226;-60
2024/02/25 04:32:50;;;;;;;6.73;5.40;;;5.90;99.90;;;;;;4998964;28;20233;-60
2024/02/25 04:35:19;;;;;;;6.00;5.40;;;5.90;99.90;;;;;;4996611;28;20183;-60
2024/02/25 04:37:49;;;;;;;11.20;6.23;;;5.90;99.90;;;;;;5000321;28;20226;-60
2024/02/25 04:40:17;;;;;;;7.77;5.80;;;6.00;99.90;;;;;;4995105;28;20266;-60
2024/02/25 04:42:45;;;;;;;7.73;6.00;;;5.90;99.90;;;;;;4995294;28;20214;-60
2024/02/25 04:45:13;;;;;;;11.60;6.27;;;5.90;99.90;;;;;;5001353;28;20245;-59
2024/02/25 04:47:42;;;;;;;8.83;6.20;;;6.00;99.90;;;;;;5004491;28;20221;-60
2024/02/25 04:50:11;;;;;;;7.97;5.97;;;6.00;99.90;;;;;;4995578;28;20198;-59
2024/02/25 04:52:39;;;;;;;6.97;6.00;;;6.00;99.90;;;;;;4995767;28;20566;-60
2024/02/25 04:55:09;;;;;;;8.93;6.53;;;5.90;99.90;;;;;;5012305;28;20222;-60
2024/02/25 04:57:37;;;;;;;9.50;6.10;;;6.00;99.90;;;;;;5019473;28;20249;-60
2024/02/25 05:00:07;;;;;;;9.40;6.10;;;6.00;99.90;;;;;;5018921;28;20352;-60
2024/02/25 05:02:36;;;;;;;8.27;6.23;;;6.00;99.90;;;;;;5013087;28;20189;-60
2024/02/25 05:05:05;;;;;;;13.07;6.50;;;6.00;99.90;;;;;;5012475;28;20198;-60
2024/02/25 05:07:33;;;;;;;8.67;6.07;;;6.00;99.90;;;;;;5020360;28;20228;-60
2024/02/25 05:10:02;;;;;;;7.77;6.30;;;6.00;99.90;;;;;;5011058;28;20232;-60
2024/02/25 05:12:32;;;;;;;11.77;6.10;;;6.00;99.90;;;;;;5022445;28;20305;-60
2024/02/25 05:15:00;;;;;;;7.07;5.87;;;6.00;99.90;;;;;;5016144;28;20226;-60
2024/02/25 05:17:28;;;;;;;6.50;5.47;;;6.00;99.90;;;;;;5021413;28;20194;-60
2024/02/25 05:19:57;;;;;;;8.27;5.87;;;5.90;99.90;;;;;;5016471;28;20196;-60
2024/02/25 05:22:25;;;;;;;6.63;5.90;;;6.00;99.90;;;;;;5018005;28;20226;-59
2024/02/25 05:24:53;;;;;;;9.17;5.60;;;6.00;99.90;;;;;;5018853;28;20230;-60
2024/02/25 05:27:28;;;;;;;10.50;5.20;;;5.90;99.90;;;;;;5017030;28;20237;-60
2024/02/25 05:29:58;;;;;;;7.43;5.00;;;5.90;99.90;;;;;;5015348;28;20304;-59
2024/02/25 05:32:26;;;;;;;4.73;4.37;;;6.00;99.90;;;;;;5013845;28;20200;-59
2024/02/25 05:34:55;;;;;;;9.03;4.90;;;6.00;99.90;;;;;;5017147;28;20222;-60
2024/02/25 05:37:23;;;;;;;11.50;5.27;;;6.00;99.90;;;;;;5016965;28;20217;-60
2024/02/25 05:39:51;;;;;;;11.40;5.20;;;5.90;99.90;;;;;;5019580;28;20220;-60
2024/02/25 05:42:19;;;;;;;11.30;5.33;;;5.90;99.90;;;;;;5017146;28;20241;-59
2024/02/25 05:44:48;;;;;;;5.20;4.70;;;5.90;99.90;;;;;;5017676;28;20234;-60
2024/02/25 05:47:18;;;;;;;11.63;5.50;;;5.90;99.90;;;;;;5015113;28;20248;-60
2024/02/25 05:49:46;;;;;;;9.30;5.63;;;5.90;99.90;;;;;;4998134;28;20245;-60
2024/02/25 05:52:14;;;;;;;5.80;4.50;;;5.90;99.90;;;;;;4996045;28;20285;-60
2024/02/25 05:54:43;;;;;;;7.53;5.07;;;5.80;99.90;;;;;;5000443;28;20229;-59
2024/02/25 05:57:11;;;;;;;8.13;4.77;;;5.80;99.90;;;;;;4999529;28;20221;-59
2024/02/25 05:59:39;;;;;;;5.90;4.10;;;5.80;99.90;;;;;;4999242;28;20222;-60
2024/02/25 06:02:07;;;;;;;5.43;4.37;;;5.90;99.90;;;;;;4994287;28;20190;-60
2024/02/25 06:04:38;;;;;;;7.80;4.77;;;5.80;99.90;;;;;;4992749;28;20218;-60
2024/02/25 06:07:25;;;;;;;8.17;4.87;;;5.80;99.90;;;;;;4993766;28;20238;-60
2024/02/25 06:09:53;;;;;;;5.83;4.10;;;5.80;99.90;;;;;;4995316;28;20218;-59
2024/02/25 06:12:23;;;;;;;5.23;4.73;;;5.70;99.90;;;;;;4995358;28;20225;-59
2024/02/25 06:14:51;;;;;;;6.10;4.50;;;5.70;99.90;;;;;;4996042;28;20344;-61
2024/02/25 06:17:19;;;;;;;7.87;4.67;;;5.70;99.90;;;;;;5000906;28;20206;-60
2024/02/25 06:19:49;;;;;;;7.60;4.50;;;5.70;99.90;;;;;;5018612;28;20200;-60
2024/02/25 06:22:18;;;;;;;5.60;4.37;;;5.70;99.90;;;;;;5014395;28;20214;-59
2024/02/25 06:24:46;;;;;;;5.47;4.77;;;5.70;99.90;;;;;;5016621;28;20224;-60
2024/02/25 06:27:15;;;;;;;4.67;4.03;;;5.70;99.90;;;;;;5013997;28;20221;-60
2024/02/25 06:29:43;;;;;;;7.07;4.60;;;5.70;99.90;;;;;;4996883;28;20340;-60
2024/02/25 06:32:11;;;;;;;10.03;5.20;;;5.70;99.90;;;;;;5000425;28;20260;-59
2024/02/25 06:34:40;;;;;;;10.90;4.60;;;5.80;99.90;;;;;;4994146;28;20217;-59
2024/02/25 06:37:09;;;;;;;5.83;4.40;;;5.80;99.90;;;;;;4993783;28;20278;-59
2024/02/25 06:39:37;;;;;;;6.77;4.50;;;5.70;99.90;;;;;;4997097;28;20222;-60
2024/02/25 06:42:06;;;;;;;5.43;4.30;;;5.70;99.90;;;;;;4996651;28;20696;-60
2024/02/25 06:44:35;;;;;;;7.17;4.23;;;5.70;99.90;;;;;;4996589;28;20230;-59
2024/02/25 06:47:03;;;;;;;7.13;4.20;;;5.70;99.90;;;;;;5002460;28;20210;-60
2024/02/25 06:49:32;;;;;;;8.30;4.63;;;5.70;99.90;;;;;;4993176;28;20226;-60
2024/02/25 06:52:03;;;;;;;4.77;4.27;;;5.70;99.90;;;;;;4995229;28;20273;-60
2024/02/25 06:54:32;;;;;;;6.17;4.10;;;5.70;99.90;;;;;;4993647;28;20302;-59
2024/02/25 06:57:01;;;;;;;5.47;4.27;;;5.70;99.90;;;;;;5001225;28;20267;-60
2024/02/25 06:59:29;;;;;;;6.00;4.50;;;5.70;99.90;;;;;;5016178;28;20738;-60
2024/02/25 07:01:57;;;;;;;7.47;4.90;;;5.70;99.90;;;;;;5017506;28;20628;-61
2024/02/25 07:04:26;;;;;;;5.20;4.00;;;5.80;99.90;;;;;;5013477;28;20214;-60
2024/02/25 07:06:54;;;;;;;7.00;4.00;;;5.80;99.90;;;;;;5014879;28;20230;-60
2024/02/25 07:09:23;;;;;;;10.03;4.83;;;5.80;99.90;;;;;;5011318;28;20664;-60
2024/02/25 07:11:52;;;;;;;5.20;4.60;;;5.90;99.90;;;;;;5017610;28;20314;-60
2024/02/25 07:14:21;;;;;;;4.90;4.40;;;5.90;99.90;;;;;;5018712;28;20186;-61
2024/02/25 07:16:49;;;;;;;4.93;4.53;;;5.90;99.90;;;;;;5019178;28;20541;-60
2024/02/25 07:19:17;;;;;;;7.27;4.53;;;5.90;99.90;;;;;;5012103;28;20572;-60
2024/02/25 07:21:45;;;;;;;8.57;4.73;;;5.90;99.90;;;;;;5017160;28;20229;-60
2024/02/25 07:24:14;;;;;;;12.63;5.20;;;6.00;99.90;;;;;;5014378;28;20218;-60
2024/02/25 07:26:42;;;;;;;8.37;5.30;;;6.00;99.90;;;;;;5017588;28;20229;-60
2024/02/25 07:29:12;;;;;;;6.37;4.70;;;6.00;99.90;;;;;;5016871;28;20198;-60
2024/02/25 07:31:40;;;;;;;8.73;4.60;;;6.00;99.90;;;;;;5014557;28;20221;-60
2024/02/25 07:34:09;;;;;;;5.13;4.47;;;6.00;99.90;;;;;;5006193;28;20228;-61
2024/02/25 07:36:37;;;;;;;5.00;4.60;;;6.00;99.90;;;;;;5013851;28;20564;-60
2024/02/25 07:39:05;;;;;;;10.63;4.50;;;6.00;99.90;;;;;;5016554;28;20224;-60
2024/02/25 07:41:34;;;;;;;9.43;4.60;;;6.20;99.90;;;;;;5018183;28;20721;-60
2024/02/25 07:44:02;;;;;;;5.97;4.40;;;6.20;99.90;;;;;;5016169;28;20252;-61
2024/02/25 07:46:31;;;;;;;8.00;4.67;;;6.30;99.90;;;;;;5004584;28;20222;-60
2024/02/25 07:49:00;;;;;;;4.53;3.93;;;6.30;99.90;;;;;;5003082;28;20214;-60
2024/02/25 07:51:34;;;;;;;7.67;3.97;;;6.30;99.90;;;;;;4996386;28;20223;-61
2024/02/25 07:54:03;;;;;;;5.43;3.90;;;6.40;99.90;;;;;;5000744;28;20226;-60
2024/02/25 07:56:31;;;;;;;4.03;3.60;;;6.50;99.90;;;;;;4994878;28;20198;-60
2024/02/25 07:59:00;;;;;;;4.80;3.63;;;6.80;99.90;;;;;;4997118;28;20258;-60
2024/02/25 08:01:28;;;;;;;6.13;4.00;;;7.00;99.90;;;;;;4994437;28;20226;-60
2024/02/25 08:03:57;;;;;;;4.83;3.73;;;7.10;99.90;;;;;;4993610;28;20227;-60
2024/02/25 08:06:28;;;;;;;4.53;4.03;;;7.10;99.90;;;;;;4996081;28;20264;-61
2024/02/25 08:08:56;;;;;;;8.43;4.07;;;7.10;99.90;;;;;;4996226;28;20229;-61
2024/02/25 08:11:25;;;;;;;4.77;3.97;;;7.20;99.90;;;;;;4997519;28;20201;-60
2024/02/25 08:13:53;;;;;;;10.67;3.90;;;7.20;99.90;;;;;;4992031;28;20198;-61
2024/02/25 08:16:22;;;;;;;8.23;3.73;;;7.20;99.90;;;;;;4998337;28;20309;-61
2024/02/25 08:18:54;;;;;;;7.47;3.70;;;7.10;99.90;;;;;;5009186;28;20253;-61
2024/02/25 08:21:24;;;;;;;5.90;3.73;;;7.10;99.90;;;;;;5001684;28;20241;-60
2024/02/25 08:23:53;;;;;;;8.53;3.60;;;7.20;99.90;;;;;;4994535;28;20321;-61
2024/02/25 08:26:21;;;;;;;4.57;3.50;;;7.30;99.90;;;;;;4999593;28;20257;-61
2024/02/25 08:28:49;;;;;;;3.77;3.40;;;7.30;99.90;;;;;;4995856;28;20207;-61
2024/02/25 08:31:18;;;;;;;8.60;3.53;;;7.30;99.90;;;;;;5001087;28;20222;-61
2024/02/25 08:33:46;;;;;;;5.07;3.43;;;7.30;99.90;;;;;;4998243;28;20297;-61
2024/02/25 08:36:14;;;;;;;5.13;3.30;;;7.30;99.90;;;;;;4993441;28;20218;-61
2024/02/25 08:38:44;;;;;;;5.83;4.10;;;7.30;99.90;;;;;;4996320;28;20238;-60
2024/02/25 08:41:12;;;;;;;7.73;4.20;;;7.30;99.90;;;;;;5001627;28;20285;-61
2024/02/25 08:43:41;;;;;;;5.20;3.83;;;7.70;99.90;;;;;;4992739;28;20229;-61
2024/02/25 08:46:10;;;;;;;4.53;4.00;;;7.90;99.90;;;;;;4995697;28;20223;-62
2024/02/25 08:48:38;;;;;;;8.10;3.93;;;8.10;99.90;;;;;;4997802;28;20219;-61
2024/02/25 08:51:06;;;;;;;5.07;3.80;;;7.90;99.90;;;;;;4995944;28;20292;-62
2024/02/25 08:53:35;;;;;;;6.63;4.50;;;7.70;99.90;;;;;;4987696;28;20198;-61
2024/02/25 08:56:05;;;;;;;4.93;4.47;;;7.70;99.90;;;;;;4991574;28;20258;-61
2024/02/25 08:58:34;;;;;;;6.43;4.97;;;7.80;99.90;;;;;;4995422;28;20229;-60
2024/02/25 09:01:02;;;;;;;9.77;4.70;;;7.70;99.90;;;;;;4997641;28;20740;-61
2024/02/25 09:03:30;;;;;;;7.97;5.27;;;7.80;99.90;;;;;;4991329;28;20226;-61
2024/02/25 09:06:17;;;;;;;8.37;5.27;;;7.80;99.90;;;;;;4993261;28;20230;-61
2024/02/25 09:08:46;;;;;;;9.30;5.47;;;7.90;99.90;;;;;;4993883;28;20226;-61
2024/02/25 09:11:16;;;;;;;7.47;5.17;;;7.90;99.90;;;;;;4992634;28;20230;-61
2024/02/25 09:13:44;;;;;;;8.27;5.33;;;8.00;99.90;;;;;;4998680;28;20214;-61
2024/02/25 09:16:12;;;;;;;8.73;5.73;;;8.00;99.90;;;;;;4988949;28;20589;-61
2024/02/25 09:18:42;;;;;;;7.77;5.00;;;8.00;99.90;;;;;;5001096;28;20228;-61
2024/02/25 09:21:10;;;;;;;6.27;5.17;;;8.00;99.90;;;;;;5001370;28;20230;-61
2024/02/25 09:23:38;;;;;;;7.63;5.30;;;8.00;99.90;;;;;;4993817;28;20283;-61
2024/02/25 09:26:08;;;;;;;6.47;5.13;;;8.00;99.90;;;;;;4997619;28;20210;-61
2024/02/25 09:28:38;;;;;;;10.07;5.90;;;8.00;99.90;;;;;;4991726;28;20217;-62
2024/02/25 09:31:08;;;;;;;7.73;5.50;;;8.20;99.90;;;;;;4986773;28;20230;-61
2024/02/25 09:33:37;;;;;;;5.67;5.10;;;8.20;99.90;;;;;;4997850;28;20580;-60
2024/02/25 09:36:06;;;;;;;6.13;5.57;;;8.20;99.90;;;;;;4990695;28;20223;-62
2024/02/25 09:38:34;;;;;;;6.47;4.83;;;8.20;99.90;;;;;;4990821;28;20201;-61
2024/02/25 09:41:04;;;;;;;5.07;4.67;;;8.30;99.90;;;;;;4993796;28;20198;-60
2024/02/25 09:43:33;;;;;;;7.07;4.80;;;8.40;99.90;;;;;;4990965;28;20217;-61
2024/02/25 09:46:04;;;;;;;5.20;4.70;;;8.50;99.90;;;;;;4992440;28;20739;-60
2024/02/25 09:48:32;;;;;;;5.63;4.70;;;8.60;99.90;;;;;;4989679;28;20720;-61
2024/02/25 09:51:01;;;;;;;6.97;4.40;;;8.40;99.90;;;;;;4993723;28;20218;-61
2024/02/25 09:53:31;;;;;;;9.30;4.87;;;8.30;99.90;;;;;;4990431;28;20260;-61
2024/02/25 09:55:58;;;;;;;6.30;4.67;;;8.30;99.90;;;;;;4994456;28;20218;-61
2024/02/25 09:58:26;;;;;;;4.40;4.00;;;8.40;99.90;;;;;;4989106;28;20226;-60
2024/02/25 10:00:55;;;;;;;5.63;4.10;;;8.40;99.90;;;;;;4990076;28;20578;-61
2024/02/25 10:03:24;;;;;;;7.90;4.77;;;8.40;99.90;;;;;;4989103;28;20285;-60
2024/02/25 10:05:55;;;;;;;4.50;4.10;;;8.30;99.90;;;;;;4997774;28;20245;-61
2024/02/25 10:08:24;;;;;;;8.67;4.50;;;8.20;99.90;;;;;;5010557;28;20208;-61
2024/02/25 10:10:53;;;;;;;7.40;4.30;;;8.10;99.90;;;;;;5011280;28;20558;-61
2024/02/25 10:13:21;;;;;;;7.93;4.10;;;7.90;99.90;;;;;;5017935;28;20241;-61
2024/02/25 10:15:59;;;;;;;10.40;4.57;;;7.80;99.90;;;;;;5012074;28;20222;-61
2024/02/25 10:18:29;;;;;;;8.77;4.40;;;7.80;99.90;;;;;;5008575;28;20245;-60
2024/02/25 10:21:02;;;;;;;6.63;4.73;;;7.90;99.90;;;;;;5011471;28;20249;-61
2024/02/25 10:23:32;;;;;;;6.30;4.30;;;7.90;99.90;;;;;;5011216;28;20603;-61
2024/02/25 10:26:13;;;;;;;7.43;4.80;;;8.00;99.90;;;;;;5010331;28;20207;-61
2024/02/25 10:28:42;;;;;;;9.67;4.97;;;8.00;99.90;;;;;;5005658;28;20232;-60
2024/02/25 10:31:14;;;;;;;8.53;4.40;;;8.20;99.90;;;;;;5006799;28;20305;-61
2024/02/25 10:33:44;;;;;;;7.33;3.97;;;8.40;99.90;;;;;;4999746;28;20228;-61
2024/02/25 10:36:13;;;;;;;10.33;3.47;;;8.60;99.90;;;;;;5016563;28;20245;-61
2024/02/25 10:38:44;;;;;;;5.10;2.83;;;8.70;99.90;;;;;;5004316;28;20887;-60
2024/02/25 10:41:14;;;;;;;3.80;2.80;;;8.80;99.90;;;;;;5010448;28;20215;-60
2024/02/25 10:43:45;;;;;;;6.93;2.70;;;9.00;99.90;;;;;;5006317;28;20215;-61
2024/02/25 10:46:23;;;;;;;6.27;2.57;;;9.20;99.90;;;;;;5011584;28;20228;-59
2024/02/25 10:48:54;;;;;;;3.43;2.70;;;9.30;99.90;;;;;;5011820;28;20221;-64
2024/02/25 10:51:23;;;;;;;5.40;2.20;;;9.40;99.90;;;;;;5020855;28;20225;-58
2024/02/25 10:53:53;;;;;;;3.30;2.50;;;9.50;99.90;;;;;;5011813;28;20214;-58
2024/02/25 10:56:22;;;;;;;2.93;2.47;;;9.50;99.90;;;;;;5012477;28;20205;-58
2024/02/25 10:58:52;;;;;;;3.20;2.03;;;9.40;99.90;;;;;;5017967;28;20640;-62
2024/02/25 11:01:22;;;;;;;3.60;2.60;;;9.50;99.90;;;;;;5008266;28;20232;-62
2024/02/25 11:03:51;;;;;;;5.83;2.63;;;9.60;99.90;;;;;;5003108;28;20241;-61
2024/02/25 11:06:33;;;;;;;6.20;2.60;;;9.80;99.90;;;;;;5008767;28;20241;-60
2024/02/25 11:09:04;;;;;;;4.33;2.33;;;10.00;99.90;;;;;;5004872;28;20225;-60
2024/02/25 11:11:32;;;;;;;7.87;2.47;;;10.40;99.90;;;;;;4992663;28;20190;-61
2024/02/25 11:14:06;;;;;;;3.47;2.07;;;10.80;99.90;;;;;;4990936;28;20210;-60
2024/02/25 11:16:37;;;;;;;7.80;2.50;;;11.00;99.90;;;;;;4986014;28;20222;-60
2024/02/25 11:19:09;;;;;;;5.30;2.33;;;10.50;99.90;;;;;;4995201;28;20257;-59
2024/02/25 11:21:37;;;;;;;4.33;2.30;;;10.20;99.90;;;;;;4994340;28;20226;-60
2024/02/25 11:24:11;;;;;;;4.40;2.10;;;10.00;99.90;;;;;;4996891;28;20229;-61
2024/02/25 11:26:43;;;;;;;4.53;2.40;;;9.70;99.90;;;;;;4998716;28;20253;-60
2024/02/25 11:29:20;;;;;;;3.00;2.07;;;9.70;99.90;;;;;;4994557;28;20191;-61
2024/02/25 11:31:53;;;;;;;3.97;2.07;;;9.90;99.90;;;;;;4998828;28;20568;-61
2024/02/25 11:34:24;;;;;;;3.83;2.13;;;10.20;99.90;;;;;;5004496;28;20253;-61
2024/02/25 11:36:55;;;;;;;5.10;2.40;;;10.30;99.90;;;;;;4999665;28;20219;-61
2024/02/25 11:39:26;;;;;;;9.07;2.30;;;10.50;99.90;;;;;;4997238;28;20274;-62
2024/02/25 11:41:59;;;;;;;5.77;2.30;;;10.50;99.90;;;;;;4988848;28;20613;-61
2024/02/25 11:44:29;;;;;;;4.10;2.27;;;10.50;99.90;;;;;;4995954;28;20202;-62
2024/02/25 11:46:58;;;;;;;6.17;2.40;;;10.60;99.90;;;;;;4989632;28;20260;-61
2024/02/25 11:49:29;;;;;;;7.37;2.30;;;10.60;99.90;;;;;;5002529;28;20238;-61
2024/02/25 11:51:58;;;;;;;8.30;2.30;;;10.80;99.90;;;;;;4997043;28;20284;-61
2024/02/25 11:54:27;;;;;;;5.63;2.70;;;10.80;99.90;;;;;;4997068;28;20253;-61
2024/02/25 11:56:55;;;;;;;9.37;4.87;;;10.90;99.90;;;;;;4995367;28;20226;-61
2024/02/25 11:59:23;;;;;;;5.47;3.17;;;10.90;99.90;;;;;;4995061;28;20211;-62
2024/02/25 12:01:53;;;;;;;6.93;2.37;;;11.00;98.00;;;;;;4995705;28;20245;-61
2024/02/25 12:04:23;;;;;;;5.90;2.40;;;10.90;99.70;;;;;;5001228;28;20214;-61
2024/02/25 12:06:53;;;;;;;6.87;2.30;;;10.90;97.00;;;;;;4995107;28;20595;-62
2024/02/25 12:09:24;;;;;;;3.87;2.63;;;10.60;99.90;;;;;;4998667;28;20225;-63
2024/02/25 12:11:53;;;;;;;8.53;2.40;;;10.60;99.90;;;;;;4997409;28;20229;-62
2024/02/25 12:14:22;;;;;;;5.77;2.40;;;10.60;99.90;;;;;;4995837;28;20195;-61
2024/02/25 12:16:51;;;;;;;7.07;2.40;;;10.70;99.90;;;;;;5002907;28;20596;-61
2024/02/25 12:19:22;;;;;;;6.77;2.53;;;10.90;99.90;;;;;;5001423;28;20239;-61
2024/02/25 12:21:52;;;;;;;5.13;2.10;;;11.30;99.90;;;;;;4994493;28;20222;-62
2024/02/25 12:24:21;;;;;;;4.77;2.07;;;11.90;92.20;;;;;;4993012;28;20224;-62
2024/02/25 12:26:50;;;;;;;4.87;1.90;;;11.90;1.00;;;;;;4991974;28;20222;-61
2024/02/25 12:29:18;;;;;;;9.07;2.37;;;11.70;1.00;;;;;;4993722;28;20278;-61
2024/02/25 12:31:47;;;;;;;5.77;1.60;;;11.40;1.00;;;;;;4997389;28;20194;-61
2024/02/25 12:34:16;;;;;;;4.10;1.97;;;11.10;1.00;;;;;;4994469;28;20215;-60
2024/02/25 12:36:45;;;;;;;4.50;1.90;;;11.10;1.00;;;;;;4996369;28;20231;-61
2024/02/25 12:39:18;;;;;;;8.53;2.50;;;11.20;1.00;;;;;;5001127;28;20220;-60
2024/02/25 12:41:55;;;;;;;5.67;1.97;;;11.20;1.00;;;;;;4999496;28;20222;-60
2024/02/25 12:44:25;;;;;;;5.33;1.67;;;11.00;1.00;;;;;;4997625;28;20190;-61
2024/02/25 12:46:54;;;;;;;4.13;1.80;;;10.70;1.00;;;;;;4998552;28;20289;-61
2024/02/25 12:49:22;;;;;;;6.00;2.03;;;10.60;1.00;;;;;;4994629;28;20218;-61
2024/02/25 12:51:51;;;;;;;7.73;2.17;;;10.60;1.00;;;;;;4994245;28;20261;-61
2024/02/25 12:54:21;;;;;;;2.37;1.97;;;10.70;1.00;;;;;;4997226;28;20218;-60
2024/02/25 12:56:50;;;;;;;4.53;2.20;;;10.50;1.00;;;;;;4994744;28;20218;-60
2024/02/25 12:59:18;;;;;;;4.70;2.20;;;10.40;1.00;;;;;;4997174;28;20202;-60
2024/02/25 13:01:46;;;;;;;8.07;2.80;;;10.40;1.00;;;;;;5020837;28;20201;-61
2024/02/25 13:04:16;;;;;;;6.63;2.10;;;10.60;1.00;;;;;;5016514;28;20241;-60
2024/02/25 13:06:45;;;;;;;6.03;2.13;;;11.00;1.00;;;;;;5012428;28;20221;-60